Time;durP1;ratioP1;P1;durP2;ratioP2;P2;SDS_P1;SDS_P2;PMS_P1;PMS_P2;Temp;Humidity;BMP_temperature;BMP_pressure;BME280_temperature;BME280_humidity;BME280_pressure;Samples;Min_cycle;Max_cycle;Signal;HPM_P1;HPM_P2
2022/08/25 00:00:19;;;;;;;5.75;2.90;;;;;;;;;;2098677;28;20040;-78
2022/08/25 00:01:45;;;;;;;4.35;2.33;;;;;;;22.23;84.04;100610.75;2096928;28;20104;-78
2022/08/25 00:03:07;;;;;;;4.40;2.50;;;;;;;22.22;84.03;100609.00;2086820;28;20044;-78
2022/08/25 00:04:30;;;;;;;5.43;2.55;;;;;;;22.22;84.13;100609.00;2092199;28;20040;-78
2022/08/25 00:05:51;;;;;;;4.45;2.30;;;;;;;22.22;84.25;100609.00;2096643;28;20517;-78
2022/08/25 00:07:14;;;;;;;4.22;2.42;;;;;;;22.21;84.31;100612.63;2094555;28;20076;-77
2022/08/25 00:08:37;;;;;;;5.53;2.45;;;;;;;22.19;84.32;100608.22;2099643;28;20089;-77
2022/08/25 00:09:59;;;;;;;4.25;2.50;;;;;;;22.18;84.20;100610.06;2096024;28;20492;-77
2022/08/25 00:11:22;;;;;;;4.55;2.60;;;;;;;22.17;84.25;100599.34;2096991;28;20435;-78
2022/08/25 00:12:45;;;;;;;5.25;2.80;;;;;;;22.14;84.01;100605.69;2097709;28;20048;-78
2022/08/25 00:14:14;;;;;;;5.05;2.50;;;;;;;22.15;83.77;100601.19;2096023;28;20053;-77
2022/08/25 00:15:37;;;;;;;4.72;2.40;;;;;;;22.14;83.71;100605.69;2094867;28;20101;-77
2022/08/25 00:16:59;;;;;;;6.65;2.50;;;;;;;22.13;83.53;100603.03;2085843;28;20063;-77
2022/08/25 00:18:21;;;;;;;6.47;2.78;;;;;;;22.13;83.54;100603.94;2092456;28;20052;-77
2022/08/25 00:19:43;;;;;;;7.72;2.55;;;;;;;22.12;83.54;100593.25;2094661;28;20045;-77
2022/08/25 00:21:05;;;;;;;4.43;2.60;;;;;;;22.11;83.44;100595.06;2092223;28;20143;-78
2022/08/25 00:22:27;;;;;;;;;;;;;;;22.06;83.50;100597.00;2092611;28;20048;-77
2022/08/25 00:23:49;;;;;;;;;;;;;;;22.01;83.66;100595.41;2097617;28;20521;-77
2022/08/25 00:25:12;;;;;;;4.10;2.10;;;;;;;21.98;83.88;100593.72;2087768;28;19924;-77
2022/08/25 00:26:35;;;;;;;4.50;2.65;;;;;;;21.98;83.74;100592.84;2096696;28;20142;-77
2022/08/25 00:27:57;;;;;;;4.25;2.70;;;;;;;21.99;83.77;100586.53;2088002;28;20139;-78
2022/08/25 00:29:21;;;;;;;4.32;2.35;;;;;;;21.98;83.79;100585.66;2099879;28;20438;-77
2022/08/25 00:30:44;;;;;;;4.10;2.38;;;;;;;21.97;83.77;100581.19;2096735;28;20071;-78
2022/08/25 00:32:07;;;;;;;5.10;2.40;;;;;;;21.97;83.87;100588.38;2097073;28;20040;-77
2022/08/25 00:33:30;;;;;;;7.00;2.90;;;;;;;21.92;83.88;100587.63;2088509;28;20413;-78
2022/08/25 00:34:53;;;;;;;5.68;2.60;;;;;;;21.88;84.10;100586.84;2096132;28;20055;-78
2022/08/25 00:36:15;;;;;;;3.40;2.10;;;;;;;21.85;84.27;100579.78;2102930;28;20539;-78
2022/08/25 00:37:38;;;;;;;5.38;2.50;;;;;;;21.83;84.36;100578.06;2105455;28;20531;-78
2022/08/25 00:39:00;;;;;;;4.25;2.50;;;;;;;21.82;84.39;100581.69;2097207;28;20037;-78
2022/08/25 00:40:23;;;;;;;5.05;2.60;;;;;;;21.81;84.47;100578.09;2094372;28;20118;-78
2022/08/25 00:41:45;;;;;;;5.63;2.20;;;;;;;21.80;84.58;100573.66;2093572;28;20036;-78
2022/08/25 00:43:09;;;;;;;7.93;3.03;;;;;;;21.80;84.55;100579.03;2096040;28;20169;-78
2022/08/25 00:44:32;;;;;;;4.38;2.55;;;;;;;21.79;84.60;100577.28;2096722;28;20078;-79
2022/08/25 00:45:56;;;;;;;5.88;2.00;;;;;;;21.77;84.68;100573.78;2096368;28;20144;-78
2022/08/25 00:47:19;;;;;;;5.68;2.30;;;;;;;21.77;84.60;100575.59;2094619;28;20086;-78
2022/08/25 00:48:42;;;;;;;7.70;2.53;;;;;;;21.77;84.56;100572.91;2102539;28;20552;-78
2022/08/25 00:50:09;;;;;;;3.80;2.03;;;;;;;21.76;84.53;100568.44;2097171;28;20040;-78
2022/08/25 00:51:37;;;;;;;5.75;2.47;;;;;;;21.75;84.43;100567.56;2094457;28;20037;-78
2022/08/25 00:53:03;;;;;;;5.47;2.83;;;;;;;21.73;84.50;100566.72;2096828;28;20132;-79
2022/08/25 00:54:29;;;;;;;3.58;2.10;;;;;;;21.74;84.47;100570.28;2100096;28;20051;-78
2022/08/25 00:55:52;;;;;;;4.60;2.40;;;;;;;21.70;84.35;100563.28;2095020;28;20595;-78
2022/08/25 00:57:18;;;;;;;6.90;2.13;;;;;;;21.64;84.32;100571.53;2098013;28;20047;-78
2022/08/25 00:58:41;;;;;;;6.55;2.60;;;;;;;21.58;84.63;100566.38;2103432;28;20083;-79
2022/08/25 01:00:10;;;;;;;5.65;2.50;;;;;;;21.57;84.87;100567.28;2094934;28;20226;-79
2022/08/25 01:01:35;;;;;;;6.30;2.15;;;;;;;21.57;84.79;100565.50;2095096;28;20041;-78
2022/08/25 01:02:58;;;;;;;6.28;2.58;;;;;;;21.56;84.87;100562.84;2094831;28;20052;-78
2022/08/25 01:04:20;;;;;;;4.97;2.80;;;;;;;21.50;84.96;100561.25;2102982;28;20039;-78
2022/08/25 01:05:43;;;;;;;4.38;2.42;;;;;;;21.37;85.12;100557.19;2096629;28;20049;-79
2022/08/25 01:07:06;;;;;;;4.45;2.50;;;;;;;21.27;85.41;100556.59;2094432;28;20156;-78
2022/08/25 01:08:31;;;;;;;4.80;2.55;;;;;;;21.27;85.60;100559.28;2088783;28;20041;-78
2022/08/25 01:09:54;;;;;;;4.97;2.22;;;;;;;21.34;85.61;100566.22;2090090;28;20048;-78
2022/08/25 01:11:17;;;;;;;5.95;2.58;;;;;;;21.37;85.32;100568.81;2098288;28;20736;-78
2022/08/25 01:12:39;;;;;;;6.28;2.63;;;;;;;21.43;85.18;100557.00;2106302;28;20139;-79
2022/08/25 01:14:05;;;;;;;7.45;2.72;;;;;;;21.50;84.93;100568.41;2094527;28;20110;-79
2022/08/25 01:15:28;;;;;;;3.65;2.30;;;;;;;21.52;84.63;100570.16;2100921;28;21176;-79
2022/08/25 01:16:52;;;;;;;5.95;2.33;;;;;;;21.56;84.56;100570.91;2088838;28;20052;-78
2022/08/25 01:18:14;;;;;;;3.95;2.03;;;;;;;21.56;84.56;100569.09;2107386;27;20096;-77
2022/08/25 01:19:37;;;;;;;5.95;2.83;;;;;;;21.58;84.54;100566.38;2096647;28;20493;-78
2022/08/25 01:21:00;;;;;;;6.25;2.83;;;;;;;21.59;84.41;100565.44;2093799;28;20135;-79
2022/08/25 01:22:25;;;;;;;7.78;3.80;;;;;;;21.58;84.21;100561.00;2098342;28;20097;-79
2022/08/25 01:23:48;;;;;;;5.80;2.83;;;;;;;21.53;84.03;100569.19;2094407;28;20033;-78
2022/08/25 01:25:25;;;;;;;6.55;2.83;;;;;;;21.50;83.93;100573.78;2090015;28;20493;-79
2022/08/25 01:26:47;;;;;;;5.20;2.78;;;;;;;21.42;84.16;100577.59;2095500;28;20044;-78
2022/08/25 01:28:09;;;;;;;6.32;3.05;;;;;;;21.42;84.55;100574.91;2094226;28;20060;-78
2022/08/25 01:29:32;;;;;;;4.72;2.72;;;;;;;21.45;84.53;100572.16;2087245;28;20044;-79
2022/08/25 01:30:55;;;;;;;8.57;2.75;;;;;;;21.46;84.80;100573.03;2085925;28;20090;-78
2022/08/25 01:32:17;;;;;;;8.98;3.25;;;;;;;21.50;84.97;100573.78;2090799;28;20464;-79
2022/08/25 01:33:39;;;;;;;6.47;3.08;;;;;;;21.50;85.09;100580.06;2094159;28;20765;-79
2022/08/25 01:35:01;;;;;;;6.68;3.42;;;;;;;21.47;85.36;100570.28;2090262;28;20049;-79
2022/08/25 01:36:26;;;;;;;6.53;2.80;;;;;;;21.44;85.46;100577.56;2091430;28;20147;-78
2022/08/25 01:37:49;;;;;;;5.65;2.72;;;;;;;21.40;85.95;100574.06;2094121;28;20036;-79
2022/08/25 01:39:12;;;;;;;7.00;2.97;;;;;;;21.46;86.23;100576.56;2092703;28;20098;-79
2022/08/25 01:40:36;;;;;;;5.15;2.83;;;;;;;21.54;86.25;100578.13;2087702;28;20053;-79
2022/08/25 01:42:19;;;;;;;4.53;2.60;;;;;;;21.62;86.16;100578.75;2095857;28;20072;-79
2022/08/25 01:43:41;;;;;;;5.68;2.70;;;;;;;21.67;85.86;100583.06;2104543;28;20067;-79
2022/08/25 01:45:05;;;;;;;6.95;2.47;;;;;;;21.72;85.66;100572.19;2085695;28;20076;-78
2022/08/25 01:46:28;;;;;;;4.13;2.60;;;;;;;21.75;85.53;100572.06;2091782;28;20512;-78
2022/08/25 01:47:50;;;;;;;5.20;2.47;;;;;;;21.76;85.43;100576.50;2093875;28;20064;-79
2022/08/25 01:49:12;;;;;;;5.93;3.08;;;;;;;21.73;85.46;100573.91;2098437;28;20124;-78
2022/08/25 01:50:35;;;;;;;7.53;3.10;;;;;;;21.69;85.64;100581.22;2100472;28;20130;-78
2022/08/25 01:52:02;;;;;;;6.90;2.50;;;;;;;21.65;85.91;100582.25;2096459;28;20424;-78
2022/08/25 01:53:27;;;;;;;5.75;2.65;;;;;;;21.65;86.11;100578.69;2100798;28;20739;-78
2022/08/25 01:54:50;;;;;;;6.25;2.75;;;;;;;21.66;85.99;100575.06;2092281;28;20060;-78
2022/08/25 01:56:13;;;;;;;5.75;2.80;;;;;;;21.69;85.85;100575.84;2094745;28;20509;-79
2022/08/25 01:57:36;;;;;;;4.70;2.42;;;;;;;21.72;85.90;100582.94;2107290;28;20035;-78
2022/08/25 01:58:59;;;;;;;7.18;2.60;;;;;;;21.73;85.85;100580.16;2097441;28;20049;-79
2022/08/25 02:00:22;;;;;;;6.68;3.10;;;;;;;21.74;85.33;100584.63;2096439;28;20067;-79
2022/08/25 02:01:44;;;;;;;4.75;2.70;;;;;;;21.73;85.40;100588.22;2105588;28;20047;-79
2022/08/25 02:03:07;;;;;;;6.97;3.00;;;;;;;21.75;85.41;100581.00;2097294;28;20136;-79
2022/08/25 02:04:31;;;;;;;5.82;2.58;;;;;;;21.77;85.34;100586.34;2096764;28;20041;-79
2022/08/25 02:05:54;;;;;;;6.15;3.00;;;;;;;21.74;85.13;100592.69;2102109;28;20080;-79
2022/08/25 02:07:18;;;;;;;6.72;2.72;;;;;;;21.67;85.15;100584.88;2094112;28;20147;-80
2022/08/25 02:08:41;;;;;;;4.25;2.47;;;;;;;21.56;85.22;100581.66;2101257;28;20063;-79
2022/08/25 02:10:07;;;;;;;5.03;2.42;;;;;;;21.46;85.42;100576.56;2101927;28;20148;-79
2022/08/25 02:11:28;;;;;;;4.35;2.55;;;;;;;21.43;85.77;100584.75;2102936;28;20056;-79
2022/08/25 02:12:50;;;;;;;5.68;2.47;;;;;;;21.45;85.88;100577.53;2102665;28;20052;-79
2022/08/25 02:14:15;;;;;;;7.50;2.55;;;;;;;21.50;85.83;100585.41;2097501;28;20040;-79
2022/08/25 02:15:42;;;;;;;4.25;2.30;;;;;;;21.52;85.56;100577.31;2100762;28;20059;-79
2022/08/25 02:17:04;;;;;;;5.22;2.65;;;;;;;21.46;85.60;100576.56;2101700;28;20064;-78
2022/08/25 02:18:26;;;;;;;6.25;2.75;;;;;;;21.46;85.54;100578.41;2095576;28;20139;-79
2022/08/25 02:19:48;;;;;;;5.95;2.42;;;;;;;21.48;85.65;100580.09;2093176;28;20131;-78
2022/08/25 02:21:11;;;;;;;6.65;2.92;;;;;;;21.53;85.46;100579.09;2102096;28;20040;-79
2022/08/25 02:22:35;;;;;;;9.88;2.92;;;;;;;21.55;85.41;100575.41;2101105;28;20043;-79
2022/08/25 02:23:57;;;;;;;4.47;2.97;;;;;;;21.56;85.31;100582.53;2096648;28;20044;-78
2022/08/25 02:25:20;;;;;;;5.18;2.70;;;;;;;21.58;85.04;100578.00;2093733;28;20080;-78
2022/08/25 02:26:43;;;;;;;5.10;2.63;;;;;;;21.58;84.94;100577.13;2096379;28;20045;-78
2022/08/25 02:28:05;;;;;;;5.22;2.65;;;;;;;21.56;84.76;100581.66;2094954;28;20040;-79
2022/08/25 02:29:28;;;;;;;6.40;2.90;;;;;;;21.56;84.45;100578.97;2101726;28;20044;-79
2022/08/25 02:30:51;;;;;;;7.97;3.20;;;;;;;21.50;84.29;100569.31;2101730;28;20195;-79
2022/08/25 02:32:13;;;;;;;5.57;2.50;;;;;;;21.42;84.50;100574.91;2103914;28;20143;-79
2022/08/25 02:33:36;;;;;;;4.70;2.60;;;;;;;21.40;84.80;100568.72;2101194;28;20186;-79
2022/08/25 02:34:59;;;;;;;7.22;2.55;;;;;;;21.41;84.94;100569.59;2096258;28;20047;-78
2022/08/25 02:36:21;;;;;;;6.03;3.10;;;;;;;21.39;84.98;100571.47;2093884;28;20090;-78
2022/08/25 02:37:46;;;;;;;4.85;2.90;;;;;;;21.39;85.04;100563.41;2102131;28;20047;-78
2022/08/25 02:39:08;;;;;;;6.63;3.53;;;;;;;21.36;85.03;100567.06;2094335;28;20091;-79
2022/08/25 02:40:30;;;;;;;7.97;3.03;;;;;;;21.37;85.03;100563.44;2096515;28;20044;-78
2022/08/25 02:41:52;;;;;;;6.47;2.67;;;;;;;21.40;84.86;100562.44;2096271;28;20140;-78
2022/08/25 02:43:14;;;;;;;5.82;2.85;;;;;;;21.42;84.58;100563.28;2093069;28;20159;-78
2022/08/25 02:44:37;;;;;;;5.65;2.70;;;;;;;21.42;84.48;100560.59;2097305;28;20028;-77
2022/08/25 02:45:58;;;;;;;7.60;2.85;;;;;;;21.43;84.57;100560.56;2094792;28;20102;-78
2022/08/25 02:47:22;;;;;;;6.85;2.97;;;;;;;21.42;84.47;100561.50;2093720;28;20064;-77
2022/08/25 02:48:44;;;;;;;6.25;2.63;;;;;;;21.41;84.19;100570.47;2098889;28;20045;-78
2022/08/25 02:50:07;;;;;;;6.43;2.60;;;;;;;21.41;84.29;100564.22;2095961;28;20560;-78
2022/08/25 02:51:30;;;;;;;7.97;2.70;;;;;;;21.36;84.44;100561.69;2094045;28;20114;-78
2022/08/25 02:52:54;;;;;;;5.13;2.30;;;;;;;21.34;84.64;100574.28;2090348;28;20041;-78
2022/08/25 02:54:17;;;;;;;4.60;2.65;;;;;;;21.31;84.86;100574.38;2093825;28;20468;-79
2022/08/25 02:55:39;;;;;;;4.65;2.42;;;;;;;21.30;85.33;100569.94;2102181;28;20055;-78
2022/08/25 02:57:01;;;;;;;3.92;2.33;;;;;;;21.30;85.35;100567.25;2099441;28;20132;-78
2022/08/25 02:58:23;;;;;;;5.10;2.03;;;;;;;21.29;85.49;100561.94;2097495;28;20600;-79
2022/08/25 02:59:47;;;;;;;;;;;;;;;21.25;85.59;100569.22;2103425;28;20036;-78
2022/08/25 03:01:10;;;;;;;5.00;2.50;;;;;;;21.23;85.89;100578.22;2098018;28;19924;-78
2022/08/25 03:02:33;;;;;;;4.68;2.10;;;;;;;21.21;86.10;100569.34;2106193;28;20044;-78
2022/08/25 03:03:57;;;;;;;4.53;2.55;;;;;;;21.20;86.21;100568.44;2097613;28;20068;-78
2022/08/25 03:05:18;;;;;;;4.38;2.25;;;;;;;21.23;86.12;100578.22;2098657;28;20071;-78
2022/08/25 03:06:41;;;;;;;5.63;2.40;;;;;;;21.23;86.15;100572.88;2094872;28;20048;-78
2022/08/25 03:08:05;;;;;;;5.70;2.53;;;;;;;21.23;86.05;100572.88;2101091;28;20044;-78
2022/08/25 03:09:28;;;;;;;7.25;2.80;;;;;;;21.24;86.08;100578.19;2102014;28;20179;-78
2022/08/25 03:10:49;;;;;;;4.82;2.65;;;;;;;21.26;85.92;100573.66;2103246;28;20048;-78
2022/08/25 03:12:12;;;;;;;5.20;2.65;;;;;;;21.28;85.60;100577.16;2097522;28;20440;-78
2022/08/25 03:13:36;;;;;;;4.78;2.15;;;;;;;21.27;85.46;100574.50;2095169;28;20058;-78
2022/08/25 03:14:58;;;;;;;3.85;2.08;;;;;;;21.24;85.38;100572.81;2110300;28;20097;-78
2022/08/25 03:16:21;;;;;;;5.63;2.30;;;;;;;21.25;85.50;100576.38;2100332;28;20599;-78
2022/08/25 03:17:43;;;;;;;6.57;2.42;;;;;;;21.27;85.70;100580.75;2103442;28;20075;-78
2022/08/25 03:19:05;;;;;;;;;;;;;;;21.31;85.58;100576.19;2100011;28;20105;-79
2022/08/25 03:20:28;;;;;;;4.13;2.72;;;;;;;21.35;85.60;100577.84;2101721;28;19920;-78
2022/08/25 03:21:51;;;;;;;6.95;2.33;;;;;;;21.41;85.49;100575.84;2094583;28;20075;-78
2022/08/25 03:23:16;;;;;;;4.50;2.95;;;;;;;21.50;85.47;100568.41;2097116;28;20044;-78
2022/08/25 03:24:37;;;;;;;6.03;2.30;;;;;;;21.55;85.20;100571.84;2097477;28;20131;-79
2022/08/25 03:27:39;;;;;;;4.95;2.40;;;;;;;21.61;84.71;100569.81;2105399;28;20554;-79
2022/08/25 03:29:03;;;;;;;7.90;2.65;;;;;;;21.60;84.40;100575.25;2089365;28;20072;-79
2022/08/25 03:30:26;;;;;;;5.38;2.75;;;;;;;21.57;84.30;100573.56;2095788;28;20157;-78
2022/08/25 03:31:48;;;;;;;5.50;3.08;;;;;;;21.53;84.20;100569.19;2087021;28;20075;-78
2022/08/25 03:33:10;;;;;;;5.65;2.63;;;;;;;21.52;84.21;100572.84;2108710;28;20162;-78
2022/08/25 03:34:32;;;;;;;;;;;;;;;21.45;84.17;100579.31;2105355;28;20446;-78
2022/08/25 03:35:54;;;;;;;5.28;2.70;;;;;;;21.40;84.41;100573.19;2104793;28;19971;-78
2022/08/25 03:37:16;;;;;;;7.07;2.50;;;;;;;21.36;84.69;100576.91;2097714;28;20071;-79
2022/08/25 03:38:41;;;;;;;4.78;2.65;;;;;;;21.33;84.67;100577.03;2094723;28;20052;-78
2022/08/25 03:40:06;;;;;;;7.95;2.63;;;;;;;21.29;84.93;100581.59;2094888;28;20155;-78
2022/08/25 03:41:31;;;;;;;7.78;2.63;;;;;;;21.28;84.85;100579.84;2103944;28;20052;-78
2022/08/25 03:42:54;;;;;;;7.57;2.80;;;;;;;21.27;85.03;100580.75;2096531;28;20085;-78
2022/08/25 03:44:17;;;;;;;5.25;2.40;;;;;;;21.25;84.90;100590.69;2103543;28;20080;-79
2022/08/25 03:45:40;;;;;;;5.63;2.67;;;;;;;21.19;85.04;100582.84;2098299;28;20036;-78
2022/08/25 03:47:02;;;;;;;6.40;2.80;;;;;;;21.12;85.24;100589.28;2095954;28;20056;-78
2022/08/25 03:48:24;;;;;;;4.97;3.15;;;;;;;21.12;85.53;100583.91;2099704;28;20095;-78
2022/08/25 03:49:46;;;;;;;10.38;2.70;;;;;;;21.16;85.59;100579.34;2101455;28;20044;-78
2022/08/25 03:51:09;;;;;;;6.70;2.95;;;;;;;21.20;85.48;100589.09;2094457;28;20140;-79
2022/08/25 03:52:31;;;;;;;5.18;2.70;;;;;;;21.24;85.39;100580.00;2098748;28;20052;-78
2022/08/25 03:53:55;;;;;;;10.13;2.63;;;;;;;21.28;85.48;100585.22;2102419;28;20080;-79
2022/08/25 03:55:17;;;;;;;6.45;2.65;;;;;;;21.31;85.23;100581.56;2100061;28;20547;-79
2022/08/25 03:56:39;;;;;;;4.88;2.47;;;;;;;21.33;85.23;100575.19;2087080;28;20044;-79
2022/08/25 03:58:02;;;;;;;4.03;2.47;;;;;;;21.36;85.25;100582.28;2093550;28;20057;-78
2022/08/25 03:59:25;;;;;;;4.85;2.83;;;;;;;21.40;85.21;100586.63;2094584;28;20109;-78
2022/08/25 04:00:47;;;;;;;7.82;3.05;;;;;;;21.45;85.33;100592.75;2096085;28;20040;-79
2022/08/25 04:02:09;;;;;;;8.10;3.10;;;;;;;21.50;85.38;100595.28;2094402;28;20044;-79
2022/08/25 04:03:31;;;;;;;6.72;3.08;;;;;;;21.56;85.82;100593.28;2103690;28;20040;-79
2022/08/25 04:04:53;;;;;;;5.32;2.60;;;;;;;21.60;85.78;100592.25;2097490;28;20055;-79
2022/08/25 04:06:18;;;;;;;4.10;2.53;;;;;;;21.64;85.83;100593.03;2092766;28;20036;-79
2022/08/25 04:07:41;;;;;;;4.95;2.53;;;;;;;21.64;85.59;100593.03;2102646;28;20147;-79
2022/08/25 04:09:05;;;;;;;6.88;2.60;;;;;;;21.65;85.41;100595.69;2096756;28;20045;-79
2022/08/25 04:10:26;;;;;;;4.15;2.58;;;;;;;21.65;85.17;100592.13;2097578;28;20079;-78
2022/08/25 04:11:49;;;;;;;4.47;2.78;;;;;;;21.64;85.00;100591.25;2095313;28;20201;-78
2022/08/25 04:13:11;;;;;;;5.35;2.78;;;;;;;21.65;84.90;100598.38;2097192;28;20044;-79
2022/08/25 04:14:33;;;;;;;7.50;2.85;;;;;;;21.65;84.80;100601.06;2102015;28;20415;-79
2022/08/25 04:15:55;;;;;;;4.65;2.47;;;;;;;21.68;84.58;100598.25;2103064;28;20083;-79
2022/08/25 04:17:17;;;;;;;5.88;2.47;;;;;;;21.72;84.58;100596.38;2097284;28;20047;-79
2022/08/25 04:18:40;;;;;;;4.70;2.50;;;;;;;21.73;84.43;100598.09;2101529;28;20122;-78
2022/08/25 04:20:04;;;;;;;9.98;3.60;;;;;;;21.73;84.36;100593.59;2094807;28;20504;-78
2022/08/25 04:21:26;;;;;;;5.22;3.10;;;;;;;21.73;84.47;100598.97;2094410;28;20094;-79
2022/08/25 04:22:49;;;;;;;5.10;3.05;;;;;;;21.73;84.57;100595.41;2098721;28;20044;-78
2022/08/25 04:24:13;;;;;;;7.28;3.15;;;;;;;21.76;84.55;100603.38;2094177;28;20135;-79
2022/08/25 04:25:41;;;;;;;6.13;2.83;;;;;;;21.80;84.54;100600.53;2098995;28;20047;-78
2022/08/25 04:27:03;;;;;;;4.28;2.55;;;;;;;21.86;84.39;100604.81;2103776;28;20482;-78
2022/08/25 04:28:26;;;;;;;5.90;2.55;;;;;;;21.91;84.23;100599.31;2107100;28;20047;-79
2022/08/25 04:29:47;;;;;;;6.93;3.28;;;;;;;21.94;84.07;100600.06;2102741;28;20068;-78
2022/08/25 04:31:13;;;;;;;5.63;3.15;;;;;;;21.98;83.90;100598.22;2094705;28;20133;-79
2022/08/25 04:32:36;;;;;;;5.55;3.58;;;;;;;22.01;83.88;100596.28;2094619;28;20048;-79
2022/08/25 04:33:58;;;;;;;4.95;2.58;;;;;;;22.04;84.06;100598.88;2097108;28;20155;-79
2022/08/25 04:35:21;;;;;;;5.93;2.97;;;;;;;22.06;83.97;100597.00;2098186;28;20528;-78
2022/08/25 04:36:44;;;;;;;9.10;3.22;;;;;;;22.14;84.23;100605.69;2094527;28;20665;-79
2022/08/25 04:38:06;;;;;;;5.95;3.13;;;;;;;22.27;84.68;100606.13;2094662;28;20059;-78
2022/08/25 04:39:29;;;;;;;7.03;3.47;;;;;;;22.43;85.33;100601.09;2098292;28;20072;-79
2022/08/25 04:40:57;;;;;;;5.60;3.30;;;;;;;22.59;85.77;100607.69;2096618;28;20554;-79
2022/08/25 04:42:19;;;;;;;4.85;3.15;;;;;;;22.73;85.98;100604.53;2095017;28;20062;-79
2022/08/25 04:43:43;;;;;;;5.90;2.90;;;;;;;22.89;86.09;100603.03;2094360;28;20150;-79
2022/08/25 04:45:07;;;;;;;4.60;2.70;;;;;;;23.02;86.16;100610.59;2096022;28;20072;-79
2022/08/25 04:46:31;;;;;;;4.75;2.90;;;;;;;23.17;86.24;100619.88;2094052;28;20052;-79
2022/08/25 04:47:56;;;;;;;8.05;3.15;;;;;;;23.29;86.28;100611.34;2094888;28;20129;-79
2022/08/25 04:49:19;;;;;;;5.13;2.42;;;;;;;23.42;85.96;100606.34;2101922;28;20071;-79
2022/08/25 04:50:42;;;;;;;4.90;3.00;;;;;;;23.56;85.92;100609.41;2100385;28;20048;-79
2022/08/25 04:52:05;;;;;;;4.50;2.08;;;;;;;23.69;85.91;100609.78;2101058;28;20040;-80
2022/08/25 04:53:28;;;;;;;7.53;2.70;;;;;;;23.77;85.62;100613.91;2097225;28;20047;-80
2022/08/25 04:54:52;;;;;;;5.05;2.03;;;;;;;23.83;85.43;100612.75;2094122;28;20061;-79
2022/08/25 04:56:15;;;;;;;4.43;2.28;;;;;;;23.91;85.56;100607.06;2094407;28;20086;-79
2022/08/25 04:57:38;;;;;;;4.50;2.00;;;;;;;24.01;85.47;100606.63;2095978;28;20152;-80
2022/08/25 04:59:02;;;;;;;3.85;2.20;;;;;;;24.12;85.89;100598.06;2097064;28;20056;-79
2022/08/25 05:00:25;;;;;;;7.32;2.83;;;;;;;24.25;85.89;100610.13;2100967;28;20140;-79
2022/08/25 05:01:47;;;;;;;5.88;2.33;;;;;;;24.37;85.75;100609.56;2096981;28;20167;-79
2022/08/25 05:03:10;;;;;;;3.78;2.15;;;;;;;24.51;85.28;100608.97;2096477;28;20114;-79
2022/08/25 05:04:34;;;;;;;3.70;2.08;;;;;;;24.62;84.69;100606.66;2093545;28;20385;-79
2022/08/25 05:05:57;;;;;;;4.60;2.00;;;;;;;24.72;84.57;100610.72;2099484;28;20087;-79
2022/08/25 05:07:20;;;;;;;4.03;2.03;;;;;;;24.86;83.78;100607.41;2099351;28;20048;-78
2022/08/25 05:08:42;;;;;;;5.13;2.08;;;;;;;25.01;83.62;100601.31;2101673;28;20067;-78
2022/08/25 05:10:06;;;;;;;;;;;;;;;25.11;83.10;100599.06;2103033;28;20519;-78
2022/08/25 05:11:27;;;;;;;4.47;1.70;;;;;;;25.25;82.98;100605.56;2094416;28;20022;-79
2022/08/25 05:12:50;;;;;;;5.30;2.03;;;;;;;25.38;82.58;100601.34;2097695;28;20057;-78
2022/08/25 05:14:14;;;;;;;6.68;2.20;;;;;;;25.51;82.34;100607.03;2094175;28;20052;-78
2022/08/25 05:15:51;;;;;;;5.40;2.00;;;;;;;25.66;81.54;100605.44;2102815;28;20051;-78
2022/08/25 05:17:13;;;;;;;4.13;2.22;;;;;;;25.83;81.22;100605.47;2102104;28;20082;-78
2022/08/25 05:18:35;;;;;;;3.15;1.80;;;;;;;25.98;80.98;100607.41;2100430;28;20097;-77
2022/08/25 05:19:58;;;;;;;5.53;1.50;;;;;;;26.00;80.65;100607.31;2097089;28;20048;-79
2022/08/25 05:21:23;;;;;;;5.40;1.70;;;;;;;25.85;80.51;100600.00;2094593;28;20052;-78
2022/08/25 05:22:48;;;;;;;5.22;2.33;;;;;;;25.64;80.70;100602.81;2104295;28;20049;-77
2022/08/25 05:24:10;;;;;;;8.52;2.00;;;;;;;25.60;81.19;100611.16;2099361;28;20143;-77
2022/08/25 05:25:34;;;;;;;4.20;1.60;;;;;;;25.76;80.50;100610.31;2097750;28;20064;-77
2022/08/25 05:26:57;;;;;;;4.07;2.20;;;;;;;25.72;80.24;100607.84;2094848;28;20083;-76
2022/08/25 05:28:21;;;;;;;6.72;2.00;;;;;;;25.57;79.92;100603.13;2102155;28;20404;-77
2022/08/25 05:29:43;;;;;;;5.45;2.20;;;;;;;25.45;79.72;100606.44;2098776;28;20101;-77
2022/08/25 05:31:07;;;;;;;6.15;2.65;;;;;;;25.57;79.43;100604.06;2093948;28;20042;-76
2022/08/25 05:32:30;;;;;;;3.42;2.22;;;;;;;25.79;78.59;100601.19;2095114;28;20583;-76
2022/08/25 05:33:54;;;;;;;4.85;2.20;;;;;;;25.93;77.92;100604.03;2102313;28;20135;-76
2022/08/25 05:35:18;;;;;;;4.07;2.35;;;;;;;26.06;77.15;100607.88;2101215;28;20048;-76
2022/08/25 05:36:42;;;;;;;4.53;1.90;;;;;;;26.30;76.44;100603.09;2093979;28;20044;-76
2022/08/25 05:38:04;;;;;;;4.18;1.60;;;;;;;26.54;75.97;100600.91;2096579;28;20496;-76
2022/08/25 05:39:26;;;;;;;2.70;1.40;;;;;;;26.74;75.63;100613.41;2093834;28;20045;-76
2022/08/25 05:40:51;;;;;;;3.53;1.50;;;;;;;26.94;74.85;100610.53;2085703;28;20118;-76
2022/08/25 05:42:14;;;;;;;4.32;1.52;;;;;;;27.09;74.51;100606.97;2097459;28;20064;-76
2022/08/25 05:43:37;;;;;;;3.53;1.85;;;;;;;27.20;73.75;100600.94;2100287;28;20531;-77
2022/08/25 05:44:59;;;;;;;5.65;1.50;;;;;;;27.25;73.42;100598.84;2099762;28;20040;-76
2022/08/25 05:46:23;;;;;;;2.70;1.50;;;;;;;27.34;72.72;100593.81;2085609;28;20468;-77
2022/08/25 05:47:44;;;;;;;5.28;1.83;;;;;;;27.48;72.32;100594.84;2093016;28;20076;-77
2022/08/25 05:49:07;;;;;;;4.50;1.65;;;;;;;27.61;71.88;100604.06;2095354;28;20846;-77
2022/08/25 05:50:28;;;;;;;3.22;1.63;;;;;;;27.70;71.22;100601.69;2101396;28;20032;-76
2022/08/25 05:51:51;;;;;;;4.57;1.45;;;;;;;27.76;71.13;100601.31;2095270;28;20875;-77
2022/08/25 05:53:13;;;;;;;5.38;2.00;;;;;;;27.83;71.15;100598.28;2095600;28;20041;-77
2022/08/25 05:54:35;;;;;;;2.60;1.73;;;;;;;27.87;70.73;100594.41;2093790;28;20048;-77
2022/08/25 05:55:59;;;;;;;3.53;1.38;;;;;;;27.96;70.52;100596.59;2096788;28;20150;-78
2022/08/25 05:57:21;;;;;;;3.50;1.55;;;;;;;28.08;69.61;100593.16;2102023;28;20056;-78
2022/08/25 05:58:44;;;;;;;3.67;2.22;;;;;;;28.09;68.33;100593.03;2093571;28;20137;-78
2022/08/25 06:00:10;;;;;;;2.80;1.42;;;;;;;28.10;67.05;100597.50;2093422;28;20174;-77
2022/08/25 06:03:13;;;;;;;3.20;1.50;;;;;;;28.02;65.01;100590.81;2104544;28;20169;-78
2022/08/25 06:04:36;;;;;;;7.13;1.73;;;;;;;27.98;64.69;100595.53;2098231;28;20050;-78
2022/08/25 06:06:06;;;;;;;3.90;2.00;;;;;;;28.07;64.35;100595.00;2096782;28;20048;-79
2022/08/25 06:07:29;;;;;;;2.85;1.60;;;;;;;28.21;64.31;100596.03;2089543;28;20037;-79
2022/08/25 06:08:52;;;;;;;3.97;1.73;;;;;;;28.33;62.88;100595.28;2091294;28;20051;-78
2022/08/25 06:10:15;;;;;;;4.13;1.80;;;;;;;28.33;61.72;100595.28;2102491;28;20079;-80
2022/08/25 06:11:40;;;;;;;4.28;1.80;;;;;;;28.19;60.65;100593.41;2097066;28;20057;-79
2022/08/25 06:13:04;;;;;;;3.80;1.80;;;;;;;28.02;60.10;100588.97;2102346;28;20078;-80
2022/08/25 06:14:26;;;;;;;4.38;2.30;;;;;;;27.96;59.50;100586.59;2098450;28;20044;-79
2022/08/25 06:15:48;;;;;;;4.35;1.65;;;;;;;28.00;59.99;100593.59;2099467;28;20608;-79
2022/08/25 06:17:11;;;;;;;3.50;1.60;;;;;;;28.10;60.03;100593.91;2096391;28;20497;-79
2022/08/25 06:18:33;;;;;;;4.07;1.60;;;;;;;28.25;60.33;100594.88;2101736;28;20089;-78
2022/08/25 06:19:56;;;;;;;3.67;1.80;;;;;;;28.39;60.68;100592.22;2102230;28;20048;-80
2022/08/25 06:21:18;;;;;;;5.57;1.92;;;;;;;28.46;59.98;100596.31;2093395;28;20132;-78
2022/08/25 06:22:40;;;;;;;3.92;2.00;;;;;;;28.38;59.28;100595.88;2095643;28;20052;-78
2022/08/25 06:24:03;;;;;;;6.95;2.08;;;;;;;28.43;59.09;100589.19;2109691;28;20052;-79
2022/08/25 06:25:31;;;;;;;3.28;1.90;;;;;;;28.60;58.90;100593.63;2097642;28;20048;-79
2022/08/25 06:26:56;;;;;;;4.40;2.22;;;;;;;28.71;57.47;100590.22;2094021;28;20082;-80
2022/08/25 06:28:19;;;;;;;3.83;2.13;;;;;;;28.69;56.78;100598.47;2095385;28;20108;-78
2022/08/25 06:29:41;;;;;;;2.40;1.70;;;;;;;28.70;56.00;100593.91;2096729;28;20048;-78
2022/08/25 06:31:03;;;;;;;3.55;1.92;;;;;;;28.76;56.04;100601.69;2098821;28;20055;-80